Startpagina
METAR-TAF:

METAR-TAF

Vliegvelden :

Internationale luchthaven Tocumen

Tocumen, Panama

breedte: 09-03N, lengte: 079-22W, hoogte: 45 m

Actueel weer

Dit bericht is 56 minuten geleden gemaakt, om 13:00 UTC
Wind 3 kt uit het zuidwesten
Temperatuur 26°C
Vochtigheid 89%
Druk 1011 hPa
Zicht 10 km of meer
Verspreide wolken op 1800 ft
Verspreide wolken op 9000 ft

METAR: MPTO 231300Z 22003KT 9999 SCT018 SCT090 26/24 Q1011 NOSIG

Tijdstip: 08:56 (13:56 UTC)

Verwachting

Dit bericht is 3 uur en het 26 minuten geleden gemaakt, om 10:30 UTC
Verwachting geldig van 23 om 12 UTC tot 24 om 18 UTC
Wind 6 kt uit het zuidwesten
Zicht 10 km of meer
Verspreide wolken op 1800 ft
Verspreide wolken op 9000 ft
Kans 30% :
Tijdelijke
van 23 om 17 UTC tot 23 om 21 UTC
Wind 10 kt uit het zuiden
Zicht: 6000 m
Verspreide wolken op 1500 ft, Cumulonimbus.
Gebroken wolken op 8000 ft
onweer, regen

TAF: MPTO 231030Z 2312/2418 23006KT 9999 SCT018 SCT090 PROB30 TEMPO 2317/2321 19008KT 19010KT 6000 TSRA SCT015CB BKN080

Waarnemingen en weersverwachtingen van meer dan 4000 vliegvelden (METAR en TAF).

De beschikbare stations zijn de gele en rode punten op de kaart.

Ga met uw muis naar het station om de naam te zien.

Klik dan om waarnemingen en weersverwachtingen te zien.

kaart wijzigen: klik op de groene knoppen met een zwart kruis om in te zoomen, op de groene knop met een streepje om uit te zoomen of op de groene pijlen voor aangrenzende kaarten.


METAR-TAF: